シャルル・ド・ゴール国際空港(パリ)の過去48時間の天気

シャルル・ド・ゴール国際空港(パリ) (Paris-Aeroport Charles De Gaulle)

現在時刻: 1/22 23:39 CET (1/22 22:39 UTC) 以下の時間は現地時間です。

過去48時間のMETAR気象情報
時間 風向 風速(m/s) 視程 気温(℃) 湿度(%) 気圧(hPa) 天気現象
22 23:00 北北東 6 4000m -1 93 1033 もや
22 22:30 北北東 6 4000m -1 93 1034 もや
22 22:00 北北東 6 4000m -1 93 1034 もや
22 21:30 北北東 5 4000m 0 93 1034 もや
22 21:00 北北東 4 4000m 0 86 1034 もや
22 20:30 北北東 5 4000m 0 93 1034 もや
22 20:00 北北東 4 3500m 0 100 1034 もや
22 19:30 4 5000m 0 93 1033
22 19:00 北北東 4 6000m 0 93 1033
22 18:30 北北東 3 7000m 0 86 1033
22 18:00 北北東 4 7000m 1 80 1033
22 17:30 北北東 5 8000m 1 80 1033
22 17:00 北北東 5 10km以上 1 80 1033
22 16:30 北北東 3 10km以上 1 80 1034
22 16:00 北北東 3 10km以上 1 80 1034
22 15:30 北東 4 6000m 1 86 1034
22 15:00 北北東 5 5000m 0 86 1034 もや
22 14:30 北北東 6 5000m 1 80 1035 もや
22 14:00 5 3500m 0 86 1035 もや
22 13:30 6 3500m 1 80 1035 もや
22 13:00 6 5000m 0 86 1035 もや
22 12:30 6 4000m 0 86 1036 もや
22 12:00 5 6000m 0 93 1036 もや
22 11:30 北北東 4 4000m 0 86 1036 もや
22 11:00 3 4000m -1 93 1036 もや
22 10:30 2 4000m -1 86 1035 もや
22 10:00 不定 1 3500m -2 93 1035 もや
22 09:30 北北東 3 2500m -3 100 1036 もや
22 09:00 北北東 4 3000m -3 93 1036 部分霧
22 08:30 北北東 4 2700m -3 93 1036 散在した霧
22 08:00 北北東 4 5000m -3 93 1035
22 07:30 北東 4 6000m -3 93 1035
22 07:00 北北東 4 6000m -3 93 1036
22 06:30 4 6000m -3 93 1036
22 06:00 北北東 4 6000m -2 86 1036
22 05:30 4 6000m -2 93 1036
22 05:00 5 6000m -2 93 1036
22 04:30 4 6000m -2 93 1036
22 04:00 5 6000m -2 93 1036
22 03:30 4 6000m -2 93 1036
22 03:00 4 6000m -2 93 1037
22 02:30 2 6000m -1 93 1037
22 02:00 2 6000m -1 93 1037
22 01:30 不定 2 7000m -2 93 1037
22 01:00 3 7000m -1 86 1038
22 00:30 北北東 3 7000m -1 93 1038
22 00:00 3 8000m -1 93 1038
21 23:30 3 8000m 0 86 1038
21 23:00 4 8000m 0 86 1038
21 22:30 3 9000m 0 86 1038
21 22:00 3 9000m 1 80 1038
21 21:30 北北東 2 10km以上 1 80 1038
21 21:00 北北東 3 10km以上 1 86 1038
21 20:30 北東 3 10km以上 1 80 1039
21 20:00 北東 4 10km以上 1 86 1039
21 19:30 北東 4 10km以上 1 86 1039
21 19:00 北東 4 10km以上 2 81 1039
21 18:30 北東 4 10km以上 2 81 1039
21 18:00 北東 3 10km以上 2 81 1039
21 17:30 北北東 3 10km以上 3 75 1039
21 17:00 北東 4 10km以上 4 75 1039
21 16:30 北東 4 10km以上 4 70 1039
21 16:00 北東 5 10km以上 4 70 1039
21 15:30 4 10km以上 4 75 1039
21 15:00 北北東 4 10km以上 4 75 1039
21 14:30 北北東 4 10km以上 4 75 1040
21 14:00 4 10km以上 4 75 1040
21 13:30 3 10km以上 4 75 1040
21 13:00 北北東 3 10km以上 3 75 1041
21 12:30 北東 3 10km以上 3 75 1041
21 12:00 北東 3 10km以上 3 75 1041
21 11:30 東北東 3 10km以上 2 81 1042
21 11:00 北東 3 10km以上 2 75 1041
21 10:30 北東 3 10km以上 1 80 1041 地霧
21 10:00 北北東 2 9000m 0 86 1041 地霧
21 09:30 北東 3 9000m 0 86 1041 地霧
21 09:00 北北東 3 9000m -1 93 1041 地霧
21 08:30 北東 3 9000m -1 86 1041 地霧
21 08:00 北東 4 9000m -1 86 1041
21 07:30 北東 4 9000m -1 86 1041
21 07:00 北東 4 9000m -1 86 1041
21 06:30 北東 5 9000m -1 93 1041
21 06:00 北東 5 9000m -1 93 1041
21 05:30 北東 4 7000m -1 93 1041
21 05:00 北東 4 7000m 0 86 1041
21 04:30 北東 4 5000m 0 93 1041 もや
21 04:00 北北東 5 4000m 0 93 1042 もや
21 03:30 北東 4 4000m 0 93 1042 もや
21 03:00 北北東 4 3000m 0 100 1042 もや
21 02:30 5 4000m 1 93 1042 もや
21 02:00 北北東 5 4000m 1 93 1043 もや
21 01:30 北北東 4 4000m 1 93 1043 もや
21 01:00 北北東 5 4000m 1 100 1043 もや
21 00:30 北北東 5 4000m 2 93 1043 もや
21 00:00 北北東 5 4000m 2 93 1043 もや
LFPG 222200Z 02011KT 340V040 4000 BR FEW004 M01/M02 Q1033 NOSIG
LFPG 222130Z 02011KT 010V130 4000 BR FEW004 M01/M02 Q1034 NOSIG
LFPG 222100Z 02011KT 4000 BR FEW004 M01/M02 Q1034 NOSIG
LFPG 222030Z 02010KT 4000 BR NSC M00/M01 Q1034 NOSIG
LFPG 222000Z 02008KT 4000 BR FEW004 M00/M02 Q1034 NOSIG
LFPG 221930Z 03010KT 020V090 4000 BR FEW003 BKN004 M00/M01 Q1034 NOSIG
LFPG 221900Z 03008KT 360V110 3500 BR BKN002 BKN003 00/M00 Q1034 NOSIG
LFPG 221830Z 01008KT 330V120 5000 FEW003 00/M01 Q1033 NOSIG
LFPG 221800Z 02007KT 010V090 6000 NSC 00/M01 Q1033 NOSIG
LFPG 221730Z 02005KT 320V100 7000 NSC 00/M02 Q1033 NOSIG
LFPG 221700Z 02007KT 010V110 7000 NSC 01/M02 Q1033 NOSIG
LFPG 221630Z 02010KT 8000 NSC 01/M02 Q1033 NOSIG
LFPG 221600Z 02009KT 350V050 CAVOK 01/M02 Q1033 NOSIG
LFPG 221530Z 02006KT 350V060 CAVOK 01/M02 Q1034 NOSIG
LFPG 221500Z 03006KT 020V100 CAVOK 01/M02 Q1034 NOSIG
LFPG 221430Z 04007KT 6000 NSC 01/M01 Q1034 NOSIG
LFPG 221400Z 03009KT 010V080 5000 BR SCT005 00/M02 Q1034 BECMG 7000 NSW
LFPG 221330Z 02011KT 5000 BR SCT005 01/M02 Q1035 BECMG 7000 NSW
LFPG 221300Z VRB10KT 3500 BR BKN003 M00/M02 Q1035 BECMG 7000 NSW
LFPG 221230Z 01011KT 350V060 3500 BR SCT002 01/M02 Q1035 BECMG 7000 NSW
LFPG 221200Z 01011KT 5000 BR SCT003 00/M02 Q1035 BECMG 7000 NSW
LFPG 221130Z 01011KT 350V060 4000 BR SCT003 00/M02 Q1036 BECMG 7000 NSW
LFPG 221100Z 01010KT 350V070 6000 2500N BR FEW002 00/M01 Q1036 BECMG 7000 NSW
LFPG 221030Z 02007KT 350V090 4000 BR NSC M00/M02 Q1036 BECMG 7000 NSW
LFPG 221000Z 01006KT 4000 BR FEW002 M01/M02 Q1036 BECMG 7000 NSW
LFPG 220930Z 01004KT 340V120 4000 BR FEW002 M01/M03 Q1035 BECMG 7000 NSW
LFPG 220900Z VRB02KT 3500 BR NSC M02/M03 Q1035 BECMG 7000 NSW
LFPG 220830Z 03005KT 330V120 2500 BR FEW001 M03/M03 Q1036 BECMG 6000 NSC
LFPG 220800Z 02008KT 320V110 3000 0900N R27L/1700N R09R/1600N R26R/P2000 R08L/P2000 R26L/P2000 R08R/P2000 R27R/1200U R09L/1900U PRFG BKN000 M03/M04 Q1036 BECMG 5000 BR NSC
LFPG 220730Z 03007KT 010V110 2700 0800N R27L/1100D R09R/1200U R26R/P2000 R08L/P2000 R26L/P2000 R08R/P2000 R27R/1200D R09L/1100D BCFG VV/// M03/M04 Q1036 TEMPO 0600 FZFG
LFPG 220700Z 02008KT 310V100 5000 2000N FEW001 M03/M04 Q1035 TEMPO 0600 FZFG SCT001
LFPG 220630Z 04007KT 010V110 6000 NSC M03/M04 Q1035 TEMPO 0600 FZFG SCT001
LFPG 220600Z 03008KT 020V110 6000 NSC M03/M04 Q1036 TEMPO 0600 FZFG SCT001
LFPG 220530Z 01008KT 6000 NSC M03/M04 Q1036 TEMPO 0600 FZFG SCT001
LFPG 220500Z 02008KT 360V100 6000 NSC M02/M04 Q1036 TEMPO 0600 FZFG SCT001
LFPG 220430Z 01008KT 350V100 6000 NSC M02/M03 Q1036 TEMPO 4000 BR
LFPG 220400Z 01009KT 6000 NSC M02/M03 Q1036 TEMPO 4000 BR
LFPG 220330Z 01008G22KT 360V070 6000 NSC M02/M03 Q1036 TEMPO 4000 BR
LFPG 220300Z 01009KT 6000 NSC M02/M03 Q1036 TEMPO 4000 BR
LFPG 220230Z 01008KT 6000 NSC M02/M03 Q1036 NOSIG
LFPG 220200Z 01008KT 330V100 6000 NSC M02/M03 Q1037 NOSIG
LFPG 220130Z 01003KT 6000 NSC M01/M02 Q1037 NOSIG
LFPG 220100Z 01004KT 6000 NSC M01/M02 Q1037 NOSIG
LFPG 220030Z VRB03KT 7000 NSC M02/M03 Q1037 NOSIG
LFPG 220000Z VRB05KT 7000 NSC M01/M03 Q1038 NOSIG
LFPG 212330Z 02006KT 360V130 7000 NSC M01/M02 Q1038 NOSIG
LFPG 212300Z 01006KT 8000 NSC M01/M02 Q1038 NOSIG
LFPG 212230Z 01006KT 350V080 8000 NSC M00/M02 Q1038 NOSIG
LFPG 212200Z 36007KT 330V070 8000 NSC M00/M02 Q1038 NOSIG
LFPG 212130Z 01005KT 360V100 9000 NSC 00/M02 Q1038 NOSIG
LFPG 212100Z 01006KT 350V110 9000 NSC 01/M02 Q1038 NOSIG
LFPG 212030Z 02004KT 010V090 CAVOK 01/M02 Q1038 NOSIG
LFPG 212000Z 03005KT 360V080 CAVOK 01/M01 Q1038 NOSIG
LFPG 211930Z 05006KT 020V110 CAVOK 01/M02 Q1039 NOSIG
LFPG 211900Z 05007KT 040V100 CAVOK 01/M01 Q1039 NOSIG
LFPG 211830Z 05007KT 030V110 CAVOK 01/M01 Q1039 NOSIG
LFPG 211800Z 04007KT 020V100 CAVOK 02/M01 Q1039 NOSIG
LFPG 211730Z 04007KT 020V080 CAVOK 02/M01 Q1039 NOSIG
LFPG 211700Z 04005KT 030V100 CAVOK 02/M01 Q1039 NOSIG
LFPG 211630Z 03005KT 020V120 CAVOK 03/M01 Q1039 NOSIG
LFPG 211600Z 04007KT 010V080 CAVOK 04/M00 Q1039 NOSIG
LFPG 211530Z 05007KT CAVOK 04/M01 Q1039 NOSIG
LFPG 211500Z 05009KT 020V080 CAVOK 04/M01 Q1039 NOSIG
LFPG 211430Z 01007KT CAVOK 04/M00 Q1039 NOSIG
LFPG 211400Z 02007KT 9999 FEW013 04/00 Q1039 NOSIG
LFPG 211330Z 02007KT 360V090 9999 FEW013 04/M00 Q1040 NOSIG
LFPG 211300Z 01007KT 9999 FEW010 04/00 Q1040 NOSIG
LFPG 211230Z 01006KT 9999 FEW010 04/M00 Q1040 NOSIG
LFPG 211200Z 02005KT 350V070 CAVOK 03/M01 Q1041 NOSIG
LFPG 211130Z 04005KT 010V080 CAVOK 03/M01 Q1041 NOSIG
LFPG 211100Z 04006KT 010V080 CAVOK 03/M01 Q1041 NOSIG
LFPG 211030Z 06005KT 030V090 CAVOK 02/M01 Q1042 NOSIG
LFPG 211000Z 05005KT CAVOK 02/M02 Q1041 NOSIG
LFPG 210930Z 05005KT 010V080 9999 MIFG NSC 01/M02 Q1041 NOSIG
LFPG 210900Z 02004KT 280V050 9000 MIFG NSC 00/M02 Q1041 NOSIG
LFPG 210830Z 04005KT 9000 MIFG NSC M00/M02 Q1041 NOSIG
LFPG 210800Z 03006KT 350V070 9000 MIFG NSC M01/M02 Q1041 NOSIG
LFPG 210730Z 05006KT 9000 MIFG NSC M01/M03 Q1041 NOSIG
LFPG 210700Z 05008KT 030V090 9000 NSC M01/M03 Q1041 NOSIG
LFPG 210630Z 04007KT 010V120 9000 NSC M01/M03 Q1041 NOSIG
LFPG 210600Z 05008KT 9000 NSC M01/M03 Q1041 NOSIG
LFPG 210530Z 05009KT 9000 NSC M01/M02 Q1041 NOSIG
LFPG 210500Z 05010KT 9000 NSC M01/M02 Q1041 NOSIG
LFPG 210430Z 04008KT 7000 NSC M01/M02 Q1041 NOSIG
LFPG 210400Z 04007KT 7000 NSC M00/M02 Q1041 NOSIG
LFPG 210330Z 04008KT 5000 BR NSC M00/M01 Q1041 NOSIG
LFPG 210300Z 03009KT 4000 BR NSC 00/M01 Q1042 NOSIG
LFPG 210230Z 04007KT 4000 BR NSC 00/M01 Q1042 NOSIG
LFPG 210200Z 02008KT 3000 BR FEW002 00/M00 Q1042 NOSIG
LFPG 210130Z 01009KT 4000 BR FEW001 01/M00 Q1042 TEMPO 1500 BKN001
LFPG 210100Z 03009KT 4000 BR NSC 01/00 Q1043 TEMPO BKN005
LFPG 210030Z 03008KT 4000 BR FEW004 01/00 Q1043 TEMPO BKN005
LFPG 210000Z 03010KT 4000 BR NSC 01/01 Q1043 TEMPO BKN005
LFPG 202330Z 03009KT 020V090 4000 BR NSC 02/01 Q1043 TEMPO BKN005
LFPG 202300Z 03010KT 4000 BR NSC 02/01 Q1043 TEMPO BKN005